Time;durP1;ratioP1;P1;durP2;ratioP2;P2;SDS_P1;SDS_P2;PMS_P1;PMS_P2;Temp;Humidity;BMP_temperature;BMP_pressure;BME280_temperature;BME280_humidity;BME280_pressure;Samples;Min_cycle;Max_cycle;Signal;HPM_P1;HPM_P2
2023/12/18 00:01:26;;;;;;;15.20;7.57;;;4.50;99.90;;;;;;4951120;29;20204;-73
2023/12/18 00:03:52;;;;;;;16.70;7.70;;;4.40;99.90;;;;;;4948583;29;20470;-74
2023/12/18 00:06:17;;;;;;;13.70;8.50;;;4.40;99.90;;;;;;4947721;29;20461;-75
2023/12/18 00:08:43;;;;;;;11.77;8.20;;;4.30;99.90;;;;;;4941669;29;20550;-73
2023/12/18 00:11:09;;;;;;;8.80;6.87;;;4.30;99.90;;;;;;4939416;29;20256;-74
2023/12/18 00:13:34;;;;;;;9.43;6.73;;;4.30;99.90;;;;;;4939503;29;20209;-74
2023/12/18 00:16:01;;;;;;;13.97;7.10;;;4.20;99.90;;;;;;4941912;29;20209;-75
2023/12/18 00:18:26;;;;;;;20.60;8.87;;;4.20;99.90;;;;;;4942330;29;20344;-75
2023/12/18 00:20:52;;;;;;;10.50;6.90;;;4.20;99.90;;;;;;4938052;29;20426;-73
2023/12/18 00:23:18;;;;;;;10.30;7.70;;;4.10;99.90;;;;;;4938620;29;20293;-74
2023/12/18 00:25:44;;;;;;;12.20;7.80;;;4.10;99.90;;;;;;4938798;29;20265;-73
2023/12/18 00:28:09;;;;;;;13.50;7.57;;;4.10;99.90;;;;;;4938040;29;20433;-72
2023/12/18 00:30:35;;;;;;;11.33;7.40;;;4.10;99.90;;;;;;4938702;29;20190;-73
2023/12/18 00:33:01;;;;;;;11.03;7.00;;;4.10;99.90;;;;;;4943543;29;20223;-74
2023/12/18 00:35:28;;;;;;;16.37;7.80;;;4.10;99.90;;;;;;4943954;29;20241;-74
2023/12/18 00:37:54;;;;;;;11.50;6.87;;;4.00;99.90;;;;;;4943008;29;20493;-77
2023/12/18 00:40:20;;;;;;;14.97;8.53;;;4.00;99.90;;;;;;4943335;29;20410;-74
2023/12/18 00:42:47;;;;;;;15.60;9.20;;;4.00;99.90;;;;;;4942009;29;20469;-73
2023/12/18 00:45:15;;;;;;;13.93;7.70;;;4.10;99.90;;;;;;4942431;29;20812;-73
2023/12/18 00:47:40;;;;;;;16.60;8.47;;;4.10;99.90;;;;;;4941919;29;20476;-75
2023/12/18 00:50:09;;;;;;;12.90;7.97;;;4.10;99.90;;;;;;4944851;29;20511;-73
2023/12/18 00:52:35;;;;;;;19.37;9.13;;;4.10;99.90;;;;;;4939342;29;20552;-73
2023/12/18 00:55:01;;;;;;;10.40;7.53;;;4.10;99.90;;;;;;4940738;29;20437;-72
2023/12/18 00:57:27;;;;;;;15.23;8.63;;;4.10;99.90;;;;;;4942677;29;20406;-73
2023/12/18 00:59:53;;;;;;;12.23;8.67;;;4.10;99.90;;;;;;4942270;29;20915;-73
2023/12/18 01:02:18;;;;;;;14.30;8.73;;;4.10;99.90;;;;;;4941425;29;20185;-73
2023/12/18 01:04:44;;;;;;;11.60;7.80;;;4.00;99.90;;;;;;4943414;28;20245;-74
2023/12/18 01:07:09;;;;;;;10.37;8.30;;;3.90;99.90;;;;;;4942513;29;20285;-74
2023/12/18 01:09:35;;;;;;;13.30;8.87;;;4.00;99.90;;;;;;4940536;29;20227;-73
2023/12/18 01:12:01;;;;;;;14.67;8.00;;;3.90;99.90;;;;;;4940937;29;20308;-73
2023/12/18 01:14:26;;;;;;;14.60;9.53;;;3.90;99.90;;;;;;4941755;29;20288;-73
2023/12/18 01:16:54;;;;;;;11.60;7.37;;;3.80;99.90;;;;;;4944776;29;20221;-73
2023/12/18 01:19:20;;;;;;;13.37;8.40;;;3.80;99.90;;;;;;4946132;29;20285;-73
2023/12/18 01:21:46;;;;;;;18.07;8.70;;;3.80;99.90;;;;;;4947327;29;20465;-74
2023/12/18 01:24:12;;;;;;;13.87;8.93;;;3.80;99.90;;;;;;4951633;29;20453;-73
2023/12/18 01:26:38;;;;;;;17.10;9.57;;;3.80;99.90;;;;;;4944174;29;20524;-74
2023/12/18 01:29:05;;;;;;;14.00;8.70;;;3.80;99.90;;;;;;4940858;29;20540;-74
2023/12/18 01:31:31;;;;;;;13.70;9.60;;;3.80;99.90;;;;;;4941209;29;20461;-73
2023/12/18 01:33:58;;;;;;;13.57;8.03;;;3.80;99.90;;;;;;4940910;29;20436;-73
2023/12/18 01:36:23;;;;;;;14.80;7.90;;;3.80;99.90;;;;;;4937781;29;20621;-73
2023/12/18 01:38:49;;;;;;;14.93;8.90;;;3.80;99.90;;;;;;4939188;29;20445;-73
2023/12/18 01:41:14;;;;;;;18.93;9.93;;;3.80;99.90;;;;;;4940390;29;20194;-73
2023/12/18 01:43:40;;;;;;;19.33;9.07;;;3.80;99.90;;;;;;4940598;29;20548;-74
2023/12/18 01:46:06;;;;;;;15.30;7.87;;;3.80;99.90;;;;;;4940208;29;20557;-73
2023/12/18 01:48:33;;;;;;;11.30;7.90;;;3.80;99.90;;;;;;4942863;29;20245;-73
2023/12/18 01:51:00;;;;;;;9.37;7.63;;;3.70;99.90;;;;;;4940388;29;20197;-73
2023/12/18 01:53:42;;;;;;;13.67;8.07;;;3.70;99.90;;;;;;4941465;29;20430;-74
2023/12/18 01:56:09;;;;;;;13.77;8.10;;;3.70;99.90;;;;;;4941563;29;20437;-73
2023/12/18 01:58:36;;;;;;;16.83;8.00;;;3.70;99.90;;;;;;4941566;29;20417;-74
2023/12/18 02:01:03;;;;;;;13.80;8.17;;;3.60;99.90;;;;;;4941347;29;20505;-73
2023/12/18 02:03:30;;;;;;;13.00;7.90;;;3.60;99.90;;;;;;4946366;29;20430;-74
2023/12/18 02:05:59;;;;;;;10.43;6.60;;;3.50;99.90;;;;;;4940858;29;20438;-74
2023/12/18 02:08:25;;;;;;;14.23;8.63;;;3.40;99.90;;;;;;4940478;29;20709;-73
2023/12/18 02:10:52;;;;;;;15.70;8.60;;;3.40;99.90;;;;;;4939823;29;20516;-73
2023/12/18 02:13:18;;;;;;;13.87;8.60;;;3.40;99.90;;;;;;4940361;29;20455;-73
2023/12/18 02:15:44;;;;;;;16.60;9.53;;;3.40;99.90;;;;;;4940541;29;20481;-74
2023/12/18 02:18:09;;;;;;;14.57;9.87;;;3.40;99.90;;;;;;4940758;29;20190;-73
2023/12/18 02:20:35;;;;;;;11.60;8.70;;;3.40;99.90;;;;;;4940468;29;20201;-72
2023/12/18 02:23:01;;;;;;;18.73;9.40;;;3.40;99.90;;;;;;4940510;29;20711;-73
2023/12/18 02:25:26;;;;;;;13.47;9.23;;;3.40;99.90;;;;;;4940791;29;20299;-73
2023/12/18 02:27:52;;;;;;;11.90;8.10;;;3.40;99.90;;;;;;4939958;29;20755;-73
2023/12/18 02:30:20;;;;;;;14.17;7.67;;;3.40;99.90;;;;;;4940360;29;20196;-73
2023/12/18 02:32:46;;;;;;;14.23;8.07;;;3.30;99.90;;;;;;4940295;29;20607;-73
2023/12/18 02:35:12;;;;;;;11.57;8.20;;;3.30;99.90;;;;;;4940386;29;20812;-73
2023/12/18 02:37:38;;;;;;;16.23;8.50;;;3.30;99.90;;;;;;4940021;29;20436;-74
2023/12/18 02:40:04;;;;;;;11.20;7.90;;;3.30;99.90;;;;;;4940006;29;20425;-73
2023/12/18 02:42:30;;;;;;;15.93;8.30;;;3.30;99.90;;;;;;4940354;29;20461;-74
2023/12/18 02:44:56;;;;;;;15.87;8.73;;;3.30;99.90;;;;;;4940546;29;20472;-72
2023/12/18 02:47:22;;;;;;;20.10;9.93;;;3.30;99.90;;;;;;4940553;29;20206;-74
2023/12/18 02:49:48;;;;;;;14.10;9.03;;;3.30;99.90;;;;;;4941762;28;20500;-73
2023/12/18 02:52:13;;;;;;;18.67;8.60;;;3.30;99.90;;;;;;4938881;29;20449;-73
2023/12/18 02:54:39;;;;;;;13.57;8.93;;;3.30;99.90;;;;;;4938946;29;20280;-72
2023/12/18 02:57:05;;;;;;;19.43;10.10;;;3.30;99.90;;;;;;4938406;29;20178;-74
2023/12/18 02:59:30;;;;;;;14.87;9.50;;;3.30;99.90;;;;;;4939219;29;20185;-73
2023/12/18 03:01:56;;;;;;;16.50;8.80;;;3.30;99.90;;;;;;4938237;29;20208;-73
2023/12/18 03:04:22;;;;;;;13.83;8.57;;;3.30;99.90;;;;;;4940465;29;20213;-73
2023/12/18 03:06:48;;;;;;;14.67;8.77;;;3.30;99.90;;;;;;4938780;29;20213;-73
2023/12/18 03:09:14;;;;;;;16.83;10.10;;;3.20;99.90;;;;;;4940242;29;20200;-73
2023/12/18 03:11:40;;;;;;;18.07;9.43;;;3.30;99.90;;;;;;4939936;29;20472;-73
2023/12/18 03:14:07;;;;;;;15.67;9.00;;;3.20;99.90;;;;;;4939681;29;20418;-73
2023/12/18 03:16:33;;;;;;;13.60;8.70;;;3.20;99.90;;;;;;4940833;29;20456;-73
2023/12/18 03:18:59;;;;;;;14.80;9.30;;;3.20;99.90;;;;;;4938940;29;20413;-73
2023/12/18 03:21:24;;;;;;;11.60;7.97;;;3.20;99.90;;;;;;4939053;29;20529;-73
2023/12/18 03:23:50;;;;;;;15.23;9.20;;;3.10;99.90;;;;;;4939140;29;20426;-73
2023/12/18 03:26:16;;;;;;;14.23;9.80;;;3.10;99.90;;;;;;4938508;29;20325;-73
2023/12/18 03:28:42;;;;;;;13.97;8.80;;;3.10;99.90;;;;;;4921620;29;20688;-73
2023/12/18 03:31:10;;;;;;;15.53;8.97;;;3.10;99.90;;;;;;4938406;29;20465;-73
2023/12/18 03:33:36;;;;;;;15.20;8.43;;;3.10;99.90;;;;;;4942065;29;20443;-72
2023/12/18 03:36:02;;;;;;;15.53;8.93;;;3.00;99.90;;;;;;4939003;29;20696;-73
2023/12/18 03:38:28;;;;;;;10.57;8.13;;;3.00;99.90;;;;;;4938891;29;20428;-73
2023/12/18 03:40:53;;;;;;;17.57;8.83;;;3.00;99.90;;;;;;4938497;29;20508;-73
2023/12/18 03:43:20;;;;;;;17.53;8.73;;;2.90;99.90;;;;;;4939077;29;20197;-73
2023/12/18 03:45:45;;;;;;;13.17;8.50;;;2.90;99.90;;;;;;4939451;29;20488;-73
2023/12/18 03:48:11;;;;;;;16.00;8.57;;;2.90;99.90;;;;;;4942394;29;20197;-73
2023/12/18 03:50:36;;;;;;;12.33;8.67;;;2.90;99.90;;;;;;4937770;29;20189;-73
2023/12/18 03:53:02;;;;;;;15.73;7.57;;;2.90;99.90;;;;;;4938256;29;20221;-73
2023/12/18 03:55:28;;;;;;;17.13;8.97;;;2.80;99.90;;;;;;4938649;29;20206;-74
2023/12/18 03:57:53;;;;;;;14.87;8.77;;;2.80;99.90;;;;;;4939481;29;20202;-73
2023/12/18 04:00:20;;;;;;;12.83;8.63;;;2.80;99.90;;;;;;4939465;29;20575;-74
2023/12/18 04:02:45;;;;;;;12.53;8.23;;;2.80;99.90;;;;;;4937815;29;20452;-73
2023/12/18 04:05:11;;;;;;;12.77;7.90;;;2.80;99.90;;;;;;4939601;29;20503;-74
2023/12/18 04:07:37;;;;;;;12.93;8.40;;;2.80;99.90;;;;;;4938171;29;20229;-73
2023/12/18 04:10:02;;;;;;;12.27;7.90;;;2.80;99.90;;;;;;4937264;29;20209;-72
2023/12/18 04:12:29;;;;;;;10.90;6.80;;;2.70;99.90;;;;;;4937867;29;20217;-74
2023/12/18 04:14:54;;;;;;;10.57;7.13;;;2.70;99.90;;;;;;4938493;29;20448;-72
2023/12/18 04:17:20;;;;;;;12.63;8.07;;;2.70;99.90;;;;;;4937309;29;20233;-73
2023/12/18 04:19:46;;;;;;;17.33;9.53;;;2.70;99.90;;;;;;4939066;29;20258;-74
2023/12/18 04:22:11;;;;;;;16.03;9.33;;;2.60;99.90;;;;;;4937519;29;20280;-73
2023/12/18 04:24:37;;;;;;;13.20;8.10;;;2.60;99.90;;;;;;4938329;29;20576;-74
2023/12/18 04:27:03;;;;;;;15.10;8.60;;;2.60;99.90;;;;;;4937654;29;20693;-72
2023/12/18 04:29:28;;;;;;;11.37;8.73;;;2.60;99.90;;;;;;4938232;29;20194;-73
2023/12/18 04:31:54;;;;;;;17.00;10.07;;;2.60;99.90;;;;;;4938083;29;20296;-73
2023/12/18 04:34:20;;;;;;;14.33;9.63;;;2.60;99.90;;;;;;4937639;29;20202;-73
2023/12/18 04:36:45;;;;;;;16.80;10.10;;;2.60;99.90;;;;;;4937619;29;20255;-72
2023/12/18 04:39:11;;;;;;;15.83;10.77;;;2.50;99.90;;;;;;4939210;29;20213;-75
2023/12/18 04:41:37;;;;;;;16.53;11.13;;;2.60;99.90;;;;;;4938522;29;20256;-74
2023/12/18 04:44:05;;;;;;;19.83;8.90;;;2.60;99.90;;;;;;4938791;29;20194;-73
2023/12/18 04:46:35;;;;;;;18.70;8.47;;;2.60;99.90;;;;;;4934650;29;20217;-72
2023/12/18 04:49:01;;;;;;;16.20;9.60;;;2.50;99.90;;;;;;4937022;29;20437;-74
2023/12/18 04:51:26;;;;;;;16.77;10.27;;;2.50;99.90;;;;;;4938307;29;20472;-74
2023/12/18 04:53:52;;;;;;;14.20;8.60;;;2.50;99.90;;;;;;4938602;29;20421;-73
2023/12/18 04:56:18;;;;;;;15.77;9.57;;;2.50;99.90;;;;;;4938973;29;20209;-74
2023/12/18 04:58:43;;;;;;;24.07;10.33;;;2.50;99.90;;;;;;4939024;29;20472;-74
2023/12/18 05:01:12;;;;;;;12.70;8.63;;;2.50;99.90;;;;;;4942770;29;20184;-73
2023/12/18 05:03:38;;;;;;;15.80;10.47;;;2.50;99.90;;;;;;4945788;29;20222;-74
2023/12/18 05:06:03;;;;;;;15.53;10.20;;;2.50;99.90;;;;;;4943928;29;20446;-74
2023/12/18 05:08:29;;;;;;;15.90;9.67;;;2.50;99.90;;;;;;4944311;29;20276;-73
2023/12/18 05:10:55;;;;;;;13.83;9.03;;;2.40;99.90;;;;;;4945290;29;20190;-74
2023/12/18 05:13:21;;;;;;;19.67;9.33;;;2.40;99.90;;;;;;4944874;29;20190;-74
2023/12/18 05:15:47;;;;;;;17.60;9.97;;;2.30;99.90;;;;;;4943382;29;20453;-75
2023/12/18 05:18:13;;;;;;;17.27;10.47;;;2.30;99.90;;;;;;4949543;29;20569;-73
2023/12/18 05:20:39;;;;;;;21.17;10.03;;;2.30;99.90;;;;;;4947594;29;20418;-74
2023/12/18 05:23:04;;;;;;;15.87;10.10;;;2.30;99.90;;;;;;4947463;29;20194;-74
2023/12/18 05:25:30;;;;;;;20.27;10.50;;;2.30;99.90;;;;;;4949363;29;20817;-74
2023/12/18 05:27:56;;;;;;;19.43;9.60;;;2.30;99.90;;;;;;4949331;29;20308;-75
2023/12/18 05:30:22;;;;;;;18.77;10.30;;;2.20;99.90;;;;;;4951021;29;20446;-73
2023/12/18 05:32:47;;;;;;;17.63;10.90;;;2.20;99.90;;;;;;4949436;29;20217;-74
2023/12/18 05:35:13;;;;;;;15.53;9.70;;;2.20;99.90;;;;;;4947409;29;20224;-75
2023/12/18 05:37:39;;;;;;;28.70;12.00;;;2.20;99.90;;;;;;4946749;29;20174;-74
2023/12/18 05:40:05;;;;;;;17.40;11.40;;;2.20;99.90;;;;;;4947811;29;20198;-74
2023/12/18 05:42:30;;;;;;;19.40;10.47;;;2.20;99.90;;;;;;4949105;29;20186;-75
2023/12/18 05:44:56;;;;;;;18.10;11.20;;;2.20;99.90;;;;;;4949750;29;20460;-75
2023/12/18 05:47:22;;;;;;;22.83;9.90;;;2.10;99.90;;;;;;4951856;29;20194;-76
2023/12/18 05:49:47;;;;;;;17.17;10.73;;;2.10;99.90;;;;;;4932720;29;20206;-75
2023/12/18 05:52:13;;;;;;;22.07;12.03;;;2.10;99.90;;;;;;4948618;29;20636;-76
2023/12/18 05:54:39;;;;;;;16.27;10.30;;;2.10;99.90;;;;;;4917287;29;20467;-74
2023/12/18 05:57:06;;;;;;;16.90;9.57;;;2.00;99.90;;;;;;4948791;29;20201;-73
2023/12/18 05:59:31;;;;;;;18.30;10.30;;;2.00;99.90;;;;;;4932172;29;20561;-73
2023/12/18 06:01:57;;;;;;;15.80;10.80;;;2.00;99.90;;;;;;4949231;29;20441;-74
2023/12/18 06:04:23;;;;;;;16.87;11.10;;;2.00;99.90;;;;;;4948110;29;20193;-74
2023/12/18 06:06:48;;;;;;;18.73;10.83;;;2.00;99.90;;;;;;4948139;29;20221;-74
2023/12/18 06:09:14;;;;;;;15.93;10.37;;;2.00;99.90;;;;;;4951206;29;20285;-75
2023/12/18 06:11:40;;;;;;;13.60;9.73;;;2.00;99.90;;;;;;4951514;29;20206;-74
2023/12/18 06:14:05;;;;;;;20.30;10.53;;;2.00;99.90;;;;;;4949443;29;20198;-75
2023/12/18 06:16:31;;;;;;;19.07;11.97;;;2.00;99.90;;;;;;4952300;29;20210;-75
2023/12/18 06:18:59;;;;;;;18.83;10.50;;;2.00;99.90;;;;;;4950824;29;20204;-75
2023/12/18 06:21:25;;;;;;;19.27;11.03;;;2.00;99.90;;;;;;4930543;29;20222;-76
2023/12/18 06:23:51;;;;;;;19.53;10.33;;;2.00;99.90;;;;;;4930443;29;20425;-75
2023/12/18 06:26:17;;;;;;;17.53;9.67;;;1.90;99.90;;;;;;4933034;29;20469;-75
2023/12/18 06:28:42;;;;;;;17.03;9.50;;;1.90;99.90;;;;;;4948739;29;20182;-74
2023/12/18 06:31:08;;;;;;;15.53;9.10;;;1.90;99.90;;;;;;4947612;29;20198;-76
2023/12/18 06:33:34;;;;;;;20.70;10.10;;;1.90;99.90;;;;;;4953207;29;20197;-77
2023/12/18 06:36:00;;;;;;;16.27;10.00;;;1.80;99.90;;;;;;4951422;29;20472;-79
2023/12/18 06:38:25;;;;;;;17.53;9.73;;;1.80;99.90;;;;;;4932733;29;20213;-76
2023/12/18 06:40:51;;;;;;;17.07;11.60;;;1.80;99.90;;;;;;4950270;29;20162;-75
2023/12/18 06:43:17;;;;;;;20.43;11.17;;;1.80;99.90;;;;;;4932798;29;20220;-74
2023/12/18 06:45:42;;;;;;;17.50;9.87;;;1.80;99.90;;;;;;4948706;29;20288;-76
2023/12/18 06:48:08;;;;;;;16.13;8.80;;;1.80;99.90;;;;;;4918820;29;20253;-76
2023/12/18 06:50:34;;;;;;;16.07;9.73;;;1.80;99.90;;;;;;4948639;29;20204;-75
2023/12/18 06:53:00;;;;;;;17.40;10.70;;;1.80;99.90;;;;;;4951848;29;20253;-77
2023/12/18 06:55:26;;;;;;;16.67;10.37;;;1.80;99.90;;;;;;4950672;29;20268;-77
2023/12/18 06:57:51;;;;;;;17.53;9.67;;;1.80;99.90;;;;;;4947891;29;20787;-74
2023/12/18 07:00:18;;;;;;;17.00;10.20;;;1.80;99.90;;;;;;4949336;29;20185;-74
2023/12/18 07:02:43;;;;;;;17.90;11.30;;;1.90;99.90;;;;;;4951017;29;20452;-77
2023/12/18 07:05:09;;;;;;;15.60;10.27;;;1.80;99.90;;;;;;4949591;29;20445;-76
2023/12/18 07:07:35;;;;;;;17.43;9.20;;;1.80;99.90;;;;;;4958014;29;20224;-76
2023/12/18 07:10:00;;;;;;;13.43;9.07;;;1.80;99.90;;;;;;4951134;29;20284;-76
2023/12/18 07:12:26;;;;;;;14.80;9.03;;;1.80;99.90;;;;;;4933154;29;20276;-74
2023/12/18 07:14:52;;;;;;;19.07;10.23;;;1.80;99.90;;;;;;4948996;29;20237;-77
2023/12/18 07:17:17;;;;;;;19.10;9.93;;;1.80;99.90;;;;;;4951492;29;20257;-76
2023/12/18 07:19:43;;;;;;;16.33;9.27;;;1.80;99.90;;;;;;4952097;29;20229;-76
2023/12/18 07:22:09;;;;;;;12.87;8.90;;;1.80;99.90;;;;;;4933909;29;20204;-74
2023/12/18 07:24:34;;;;;;;17.00;9.70;;;1.80;99.90;;;;;;4949626;29;20196;-77
2023/12/18 07:27:00;;;;;;;28.40;12.53;;;1.80;99.90;;;;;;4950229;29;20284;-77
2023/12/18 07:29:26;;;;;;;17.73;9.93;;;1.80;99.90;;;;;;4950850;29;20185;-76
2023/12/18 07:31:52;;;;;;;15.93;10.40;;;1.80;99.90;;;;;;4934332;29;20462;-76
2023/12/18 07:34:18;;;;;;;15.27;9.10;;;1.80;99.90;;;;;;4935972;29;20205;-78
2023/12/18 07:36:43;;;;;;;21.67;9.63;;;1.70;99.90;;;;;;4952026;29;20274;-76
2023/12/18 07:39:09;;;;;;;16.40;10.00;;;1.80;99.90;;;;;;4950637;29;20189;-75
2023/12/18 07:41:35;;;;;;;17.90;9.30;;;1.80;99.90;;;;;;4949755;29;20550;-75
2023/12/18 07:44:00;;;;;;;14.13;8.67;;;1.70;99.90;;;;;;4949198;29;20194;-77
2023/12/18 07:46:27;;;;;;;15.97;10.97;;;1.70;99.90;;;;;;4949019;29;20225;-76
2023/12/18 07:48:53;;;;;;;22.40;11.10;;;1.80;99.90;;;;;;4954886;29;20208;-74
2023/12/18 07:51:19;;;;;;;18.63;9.50;;;1.90;99.90;;;;;;4951534;29;20510;-77
2023/12/18 07:53:45;;;;;;;17.63;10.20;;;1.80;99.90;;;;;;4950583;29;20418;-78
2023/12/18 07:56:11;;;;;;;14.40;9.27;;;1.80;99.90;;;;;;4950342;29;20446;-75
2023/12/18 07:58:40;;;;;;;18.03;9.17;;;1.80;99.90;;;;;;4953560;28;20497;-77
2023/12/18 08:01:11;;;;;;;16.07;10.17;;;1.80;99.90;;;;;;4955717;28;20434;-78
2023/12/18 08:03:37;;;;;;;16.97;10.30;;;1.80;99.90;;;;;;4966686;29;20428;-77
2023/12/18 08:06:03;;;;;;;14.70;9.93;;;1.80;99.90;;;;;;4957044;29;20461;-77
2023/12/18 08:08:29;;;;;;;19.47;9.37;;;1.80;99.90;;;;;;4941287;29;20437;-79
2023/12/18 08:10:55;;;;;;;15.80;9.37;;;1.80;99.90;;;;;;4940263;29;20436;-79
2023/12/18 08:13:21;;;;;;;14.93;9.37;;;1.80;99.90;;;;;;4940920;29;20173;-76
2023/12/18 08:15:48;;;;;;;17.10;10.97;;;1.80;99.90;;;;;;4957278;28;20457;-78
2023/12/18 08:18:15;;;;;;;15.07;10.47;;;1.90;99.90;;;;;;4939247;29;20520;-77
2023/12/18 08:20:45;;;;;;;15.23;9.90;;;2.10;99.90;;;;;;4956308;29;20417;-77
2023/12/18 08:23:13;;;;;;;18.27;11.00;;;2.10;99.90;;;;;;4956132;29;20412;-78
2023/12/18 08:25:39;;;;;;;16.57;10.30;;;2.10;99.90;;;;;;4926543;29;20433;-79
2023/12/18 08:28:05;;;;;;;17.23;10.00;;;2.10;99.90;;;;;;4939888;29;20473;-76
2023/12/18 08:30:31;;;;;;;13.60;9.90;;;2.10;99.90;;;;;;4937971;29;20425;-80
2023/12/18 08:33:01;;;;;;;21.93;11.57;;;2.10;99.90;;;;;;4926049;29;20465;-78
2023/12/18 08:35:27;;;;;;;16.73;10.33;;;2.20;99.90;;;;;;4940517;29;20472;-81
2023/12/18 08:38:13;;;;;;;17.20;10.10;;;2.20;99.90;;;;;;4943405;28;20439;-81
2023/12/18 08:40:50;;;;;;;17.03;11.07;;;2.30;99.90;;;;;;4959259;28;20421;-81
2023/12/18 08:43:20;;;;;;;19.30;9.97;;;2.30;99.90;;;;;;4940423;29;20418;-80
2023/12/18 08:45:46;;;;;;;17.60;10.67;;;2.30;99.90;;;;;;4919099;29;20442;-77
2023/12/18 08:48:12;;;;;;;13.87;9.63;;;2.30;99.90;;;;;;4905846;29;20433;-78
2023/12/18 08:50:39;;;;;;;14.60;9.10;;;2.40;99.90;;;;;;4919870;29;20448;-79
2023/12/18 08:53:05;;;;;;;15.47;9.43;;;2.40;99.90;;;;;;4920791;29;20225;-77
2023/12/18 08:55:31;;;;;;;14.83;10.67;;;2.40;99.90;;;;;;4956163;29;20437;-80
2023/12/18 08:57:57;;;;;;;13.80;8.73;;;2.50;99.90;;;;;;4927144;29;20193;-78
2023/12/18 09:00:24;;;;;;;18.57;11.03;;;2.50;99.90;;;;;;4940399;29;20437;-78
2023/12/18 09:02:51;;;;;;;18.70;12.03;;;2.50;99.90;;;;;;4944843;29;20460;-81
2023/12/18 09:05:19;;;;;;;26.37;13.93;;;2.50;99.90;;;;;;4933783;29;20434;-78
2023/12/18 09:07:49;;;;;;;23.57;14.00;;;2.60;99.90;;;;;;4945432;29;20559;-79
2023/12/18 09:10:17;;;;;;;25.00;13.50;;;2.60;99.90;;;;;;4927436;28;20496;-80
2023/12/18 09:12:48;;;;;;;20.83;12.17;;;2.60;99.90;;;;;;4926411;29;20461;-79
2023/12/18 09:15:16;;;;;;;19.30;12.10;;;2.70;99.90;;;;;;4953935;29;20445;-76
2023/12/18 09:17:43;;;;;;;19.23;11.90;;;2.70;99.90;;;;;;4937473;29;20425;-78
2023/12/18 09:20:11;;;;;;;24.77;14.33;;;2.70;99.90;;;;;;4943046;29;20413;-77
2023/12/18 09:23:00;;;;;;;22.80;13.43;;;2.80;99.90;;;;;;4960579;29;20516;-81
2023/12/18 09:25:27;;;;;;;21.50;12.60;;;2.80;99.90;;;;;;4957866;28;20461;-78
2023/12/18 09:27:55;;;;;;;19.07;11.30;;;2.80;99.90;;;;;;4960554;29;20446;-79
2023/12/18 09:30:24;;;;;;;21.50;13.03;;;2.90;99.90;;;;;;4961004;28;20467;-79
2023/12/18 09:32:51;;;;;;;19.20;11.37;;;2.90;99.90;;;;;;4959728;29;20524;-79
2023/12/18 09:35:39;;;;;;;19.63;12.10;;;3.00;99.90;;;;;;4943745;29;20447;-80
2023/12/18 09:38:09;;;;;;;23.03;13.37;;;3.00;99.90;;;;;;4926282;29;20198;-81
2023/12/18 09:40:42;;;;;;;21.20;12.97;;;3.10;99.90;;;;;;4886901;29;20513;-80
2023/12/18 09:43:17;;;;;;;20.80;11.30;;;3.20;99.90;;;;;;4901219;29;20419;-79
2023/12/18 09:45:48;;;;;;;17.50;11.70;;;3.20;99.90;;;;;;4874848;29;20454;-77
2023/12/18 09:48:19;;;;;;;21.40;12.40;;;3.30;99.90;;;;;;4876121;29;20411;-78
2023/12/18 09:50:52;;;;;;;17.70;10.63;;;3.30;99.90;;;;;;4886541;29;20456;-77
2023/12/18 09:53:24;;;;;;;13.97;10.23;;;3.40;99.90;;;;;;4868298;29;20568;-79
2023/12/18 09:55:54;;;;;;;11.83;8.40;;;3.50;99.90;;;;;;4870024;29;20440;-80
2023/12/18 09:58:24;;;;;;;16.00;10.80;;;3.50;99.90;;;;;;4867946;29;20438;-78
2023/12/18 10:00:53;;;;;;;16.00;10.50;;;3.60;99.90;;;;;;4869950;29;20466;-78
2023/12/18 10:03:19;;;;;;;21.73;14.43;;;3.70;99.90;;;;;;4868619;29;20504;-80
2023/12/18 10:05:51;;;;;;;19.23;12.93;;;3.80;99.90;;;;;;4883717;29;20444;-81
2023/12/18 10:08:30;;;;;;;18.57;12.40;;;4.10;99.90;;;;;;4821907;29;20244;-80
2023/12/18 10:19:32;;;;;;;15.73;10.30;;;4.30;99.90;;;;;;4982066;23;20488;-79
2023/12/18 10:22:21;;;;;;;17.40;11.80;;;4.40;99.90;;;;;;4929784;29;20439;-78
2023/12/18 10:27:42;;;;;;;20.83;10.97;;;4.40;99.90;;;;;;5309980;23;20586;-78
2023/12/18 10:30:10;;;;;;;17.00;10.10;;;4.50;99.90;;;;;;4960406;28;20450;-80
2023/12/18 10:32:49;;;;;;;15.73;10.90;;;4.50;99.90;;;;;;4961084;28;20492;-79
2023/12/18 10:35:41;;;;;;;17.27;10.07;;;4.60;99.90;;;;;;4941509;29;20446;-81
2023/12/18 10:38:20;;;;;;;22.43;12.90;;;4.60;99.90;;;;;;4926333;29;20411;-79
2023/12/18 10:40:48;;;;;;;14.30;10.00;;;4.60;99.90;;;;;;4886324;29;20428;-80
2023/12/18 10:43:38;;;;;;;16.40;9.60;;;4.60;99.90;;;;;;4872866;29;20420;-81
2023/12/18 10:46:18;;;;;;;14.30;9.70;;;4.60;99.90;;;;;;4834932;29;20461;-81
2023/12/18 10:48:51;;;;;;;18.90;13.00;;;4.60;99.90;;;;;;4851497;29;20410;-81
2023/12/18 10:51:20;;;;;;;11.80;9.57;;;4.50;99.90;;;;;;4866783;29;20456;-81
2023/12/18 10:53:54;;;;;;;16.17;10.90;;;4.60;99.90;;;;;;4832448;29;20471;-78
2023/12/18 10:56:23;;;;;;;14.27;10.53;;;4.60;99.90;;;;;;4844368;29;20566;-80
2023/12/18 11:01:27;;;;;;;13.53;10.00;;;4.70;99.90;;;;;;5672578;23;20493;-80
2023/12/18 11:04:02;;;;;;;22.43;13.93;;;4.80;99.90;;;;;;4925275;28;20445;-80
2023/12/18 11:06:36;;;;;;;18.73;13.23;;;4.80;99.90;;;;;;4925039;29;20482;-79
2023/12/18 11:09:07;;;;;;;19.17;11.83;;;4.80;99.90;;;;;;4939700;29;20516;-80
2023/12/18 11:11:43;;;;;;;20.90;13.57;;;4.90;99.90;;;;;;4887628;29;20463;-76
2023/12/18 11:14:39;;;;;;;22.20;13.57;;;4.90;99.90;;;;;;4887001;29;20427;-77
2023/12/18 11:17:33;;;;;;;19.97;13.63;;;4.90;99.90;;;;;;4903318;29;20427;-82
2023/12/18 11:20:22;;;;;;;23.03;12.73;;;4.80;99.90;;;;;;4898390;29;20458;-75
2023/12/18 11:22:53;;;;;;;18.57;11.00;;;4.80;99.90;;;;;;4909694;29;20427;-76
2023/12/18 11:25:19;;;;;;;13.90;10.70;;;4.80;99.90;;;;;;4911127;29;20458;-78
2023/12/18 11:27:44;;;;;;;14.80;10.70;;;4.80;99.90;;;;;;4911624;29;20443;-76
2023/12/18 11:30:31;;;;;;;15.20;10.87;;;4.90;99.90;;;;;;4894074;29;20451;-75
2023/12/18 11:32:58;;;;;;;11.23;8.93;;;4.90;99.90;;;;;;4868834;29;20234;-76
2023/12/18 11:35:32;;;;;;;19.30;11.10;;;4.90;99.90;;;;;;4894435;29;20463;-76
2023/12/18 11:38:11;;;;;;;15.50;11.03;;;4.80;99.90;;;;;;4879507;29;20479;-76
2023/12/18 11:40:42;;;;;;;19.93;13.73;;;4.80;99.90;;;;;;4909302;29;20423;-75
2023/12/18 11:43:10;;;;;;;18.40;12.30;;;4.80;99.90;;;;;;4918505;29;20449;-78
2023/12/18 11:45:42;;;;;;;19.43;11.50;;;4.80;99.90;;;;;;4929887;29;20525;-76
2023/12/18 11:48:08;;;;;;;25.00;12.90;;;4.80;99.90;;;;;;4916807;29;20427;-75
2023/12/18 11:50:37;;;;;;;15.10;11.47;;;4.80;99.90;;;;;;4929316;29;20455;-76
2023/12/18 11:53:07;;;;;;;13.00;10.30;;;4.80;99.90;;;;;;4913279;29;20473;-77
2023/12/18 11:55:40;;;;;;;14.63;10.17;;;4.80;99.90;;;;;;4929219;29;20466;-77
2023/12/18 11:58:07;;;;;;;12.37;9.83;;;4.80;99.90;;;;;;4912517;29;20407;-75
2023/12/18 12:00:33;;;;;;;14.87;9.70;;;4.80;99.90;;;;;;4925432;29;20477;-75
2023/12/18 12:03:03;;;;;;;12.27;8.47;;;4.80;99.90;;;;;;4931716;29;20473;-78
2023/12/18 12:05:31;;;;;;;15.80;11.30;;;4.80;99.90;;;;;;4914369;29;20465;-77
2023/12/18 12:07:58;;;;;;;14.63;11.47;;;4.90;99.90;;;;;;4929355;29;20415;-77
2023/12/18 12:10:24;;;;;;;16.30;10.80;;;4.80;99.90;;;;;;4927437;29;20422;-76
2023/12/18 12:12:54;;;;;;;20.23;11.70;;;4.90;99.90;;;;;;4929270;29;20495;-76
2023/12/18 12:15:24;;;;;;;23.07;12.87;;;4.90;99.90;;;;;;4928406;29;20478;-78
2023/12/18 12:18:04;;;;;;;18.33;11.33;;;4.90;99.90;;;;;;4931341;29;20433;-78
2023/12/18 12:20:31;;;;;;;16.83;13.20;;;4.90;99.90;;;;;;4925885;29;20442;-76
2023/12/18 12:22:57;;;;;;;16.17;11.17;;;5.00;99.90;;;;;;4929958;29;20442;-76
2023/12/18 12:25:23;;;;;;;19.47;10.97;;;5.00;99.90;;;;;;4924348;29;20482;-77
2023/12/18 12:27:49;;;;;;;16.37;11.40;;;5.00;99.90;;;;;;4928762;29;20495;-76
2023/12/18 12:30:17;;;;;;;17.97;12.20;;;5.00;99.90;;;;;;4929761;29;20462;-74
2023/12/18 12:32:43;;;;;;;20.43;10.77;;;5.10;99.90;;;;;;4931502;29;20766;-76
2023/12/18 12:35:11;;;;;;;18.37;11.47;;;5.10;99.90;;;;;;4914456;29;20459;-77
2023/12/18 12:37:39;;;;;;;16.27;11.40;;;5.00;99.90;;;;;;4939806;29;20433;-80
2023/12/18 12:40:11;;;;;;;14.17;10.70;;;5.10;99.90;;;;;;4940264;29;20415;-81
2023/12/18 12:43:05;;;;;;;12.50;9.30;;;5.20;99.90;;;;;;4924731;29;20429;-81
2023/12/18 13:17:46;;;;;;;11.77;9.27;;;5.20;99.90;;;;;;5032305;23;20500;-81
2023/12/18 13:23:21;;;;;;;12.33;8.03;;;5.20;99.90;;;;;;5123686;23;20536;-79
2023/12/18 13:26:13;;;;;;;17.10;10.00;;;5.20;99.90;;;;;;4962725;28;20456;-81
2023/12/18 13:41:01;;;;;;;12.20;8.53;;;5.10;99.90;;;;;;5211816;23;20485;-81
2023/12/18 13:44:05;;;;;;;20.10;11.87;;;5.10;99.90;;;;;;4930997;28;20481;-82
2023/12/18 13:52:48;;;;;;;13.70;9.50;;;5.10;99.90;;;;;;5063052;23;20539;-82
2023/12/18 14:12:02;;;;;;;17.53;10.27;;;5.10;99.90;;;;;;4357178;23;20487;-82